Granite Quarry, North Carolina
Current Conditions -  °F | °C
As of 5:15 PM on Wednesday 28 Jan 2015 (Local Time) from KRUQ Reporting Station
Clear Clear  
Wind Chill:   Ceiling: Unl
Heat Index:   Visibility: 10mi
Dew Point: -8°   Wind: 0mph
Humidity: 35%   Direction: NA
Pressure: 30.25"   Gusts: NA
Location:  35.61°N, 80.45°W
Report Text: KRUQ 282215Z AUTO 00000KT 10SM CLR 06/M08 A3025 RMK AO2 T00621082
Loading
Personal Weather Stations






























Interactive Weather Map New forecast layout! Learn more

10-Day Weather Forecast

Advertisements
Track Severe Weather on mobile